Latest Weather Observations for Darwin Airport

IDD60901

Issued at 11:51 am CST Tuesday 23 April 2024 (issued every 10 minutes, with the page automatically refreshed every 10 minutes)

About weather observations | Map of Darwin area stations | Latest observations for Darwin area | Other Formats
Station Details ID: 014015 Name: DARWIN AIRPORT Lat: -12.42 Lon: 130.89 Height: 30.4 m
Data from the previous 72 hours. | See also: Recent months at Darwin Airport
Date/Time
CST
Temp
°C
App
Temp
°C
Dew
Point
°C
Rel
Hum
%
Delta-T
°C
Wind Press
QNH
hPa
Press
MSL
hPa
Rain since
9am
mm
Dir  Spd
km/h
Gust
km/h
Spd
kts
Gust
kts
23/11:30am 31.7 32.9 20.0 50 7.7 E 13 20 7 11 1011.5 1011.2 0.0
23/11:00am 30.8 31.2 20.7 55 6.7 E 19 24 10 13 1011.9 1011.6 0.0
23/10:30am 30.1 30.8 20.4 56 6.4 ESE 17 24 9 13 1012.0 1011.7 0.0
23/10:00am 29.2 29.2 19.8 57 6.2 SE 19 26 10 14 1011.9 1011.6 0.0
23/09:30am 28.6 29.4 19.0 56 6.2 SE 13 20 7 11 1011.8 1011.5 0.0
23/09:00am 27.1 27.6 18.4 59 5.6 SE 13 17 7 9 1011.6 1011.3 0.0
23/08:30am 26.0 27.3 18.4 63 4.8 SE 9 15 5 8 1011.4 1011.1 0.0
23/08:00am 25.7 27.1 18.6 65 4.5 SSE 9 15 5 8 1011.3 1011.0 0.0
23/07:30am 25.3 26.6 18.5 66 4.3 SSE 9 11 5 6 1011.0 1010.7 0.0
23/07:00am 24.5 26.6 19.3 73 3.3 SSE 7 11 4 6 1010.7 1010.4 0.0
23/06:30am 25.3 27.4 19.4 70 3.8 SSE 7 9 4 5 1010.3 1010.0 0.0
23/06:00am 25.8 27.7 19.7 69 4.0 SSE 9 11 5 6 1010.2 1009.9 0.0
23/05:30am 25.8 27.6 20.4 72 3.5 SSW 11 15 6 8 1009.8 1009.6 0.0
23/05:00am 25.4 27.3 21.3 78 2.7 SSW 13 17 7 9 1009.7 1009.5 0.0
23/04:30am 25.7 28.4 21.4 77 2.9 SSW 9 11 5 6 1009.6 1009.4 0.0
23/04:00am 25.9 28.0 20.9 74 3.3 SW 11 15 6 8 1009.6 1009.4 0.0
23/03:30am 26.0 28.5 21.0 74 3.3 SW 9 11 5 6 1009.6 1009.4 0.0
23/03:00am 26.0 29.0 21.2 75 3.2 SW 7 11 4 6 1009.8 1009.6 0.0
23/02:30am 26.2 28.9 21.4 75 3.2 SSW 9 11 5 6 1010.2 1009.9 0.0
23/02:00am 26.4 29.7 21.8 76 3.1 SSW 7 9 4 5 1010.5 1010.2 0.0
23/01:30am 26.3 29.5 22.4 79 2.6 SSW 9 13 5 7 1010.8 1010.5 0.0
23/01:00am 26.8 30.5 22.2 76 3.1 SW 6 7 3 4 1011.1 1010.8 0.0
23/12:30am 27.0 30.9 20.3 66 4.4 CALM 0 0 0 0 1011.3 1011.0 0.0
23/12:00am 26.4 30.2 20.9 72 3.6 N 2 4 1 2 1011.5 1011.2 0.0
 
Date/Time
CST
Temp
°C
App
Temp
°C
Dew
Point
°C
Rel
Hum
%
Delta-T
°C
Wind Press
QNH
hPa
Press
MSL
hPa
Rain since
9am
mm
Dir  Spd
km/h
Gust
km/h
Spd
kts
Gust
kts
22/11:30pm 25.9 29.9 21.3 76 3.1 NE 2 4 1 2 1011.6 1011.3 0.0
22/11:00pm 25.8 29.4 21.2 76 3.0 NE 4 11 2 6 1011.8 1011.5 0.0
22/10:30pm 25.9 29.1 20.5 72 3.5 NNE 4 4 2 2 1011.6 1011.3 0.0
22/10:00pm 26.0 29.1 21.0 74 3.3 NNE 6 7 3 4 1011.7 1011.4 0.0
22/09:30pm 26.1 29.2 21.1 74 3.3 NNE 6 6 3 3 1011.6 1011.3 0.0
22/09:00pm 26.3 29.3 20.8 71 3.6 NNE 6 6 3 3 1011.4 1011.1 0.0
22/08:30pm 26.3 29.3 20.8 71 3.6 NNE 6 7 3 4 1011.3 1011.0 0.0
22/08:00pm 26.9 29.8 20.7 69 4.1 NNE 6 7 3 4 1011.0 1010.7 0.0
22/07:30pm 27.4 30.1 20.2 65 4.7 N 6 6 3 3 1010.6 1010.3 0.0
22/07:00pm 28.0 30.3 19.8 61 5.4 N 7 11 4 6 1010.3 1010.0 0.0
22/06:30pm 28.6 30.2 19.2 56 6.1 NNW 9 11 5 6 1009.9 1009.7 0.0
22/06:00pm 29.4 30.3 18.5 52 7.0 N 11 13 6 7 1009.7 1009.5 0.0
22/05:30pm 29.9 30.9 17.7 48 7.8 NW 9 13 5 7 1009.3 1009.1 0.0
22/05:00pm 30.8 31.5 17.1 43 8.7 NW 9 13 5 7 1009.1 1008.9 0.0
22/04:30pm 31.0 31.3 17.0 43 8.9 NW 11 15 6 8 1008.7 1008.5 0.0
22/04:00pm 30.8 30.5 16.4 42 9.0 NW 13 19 7 10 1008.6 1008.4 0.0
22/03:30pm 32.1 31.9 17.6 42 9.3 WNW 15 19 8 10 1008.8 1008.6 0.0
22/03:00pm 31.9 31.6 17.4 42 9.3 NW 15 20 8 11 1009.0 1008.8 0.0
22/02:30pm 31.3 32.3 16.9 42 9.1 E 7 17 4 9 1009.4 1009.2 0.0
22/02:00pm 30.8 31.8 16.4 42 9.0 E 6 15 3 8 1009.6 1009.4 0.0
22/01:30pm 30.5 30.7 15.8 41 9.1 E 9 17 5 9 1009.8 1009.6 0.0
22/01:00pm 29.8 29.8 15.1 40 9.0 ENE 9 17 5 9 1010.2 1009.9 0.0
22/12:30pm 29.9 29.1 15.2 40 9.0 E 13 19 7 10 1010.5 1010.2 0.0
22/12:00pm 29.9 28.6 14.8 39 9.2 ESE 15 24 8 13 1010.9 1010.6 0.0
22/11:30am 29.0 27.6 14.4 41 8.8 E 15 22 8 12 1011.3 1011.0 0.0
22/11:00am 28.5 25.8 13.6 40 8.9 ESE 20 28 11 15 1011.6 1011.3 0.0
22/10:30am 27.9 25.1 13.1 40 8.7 ESE 20 28 11 15 1011.7 1011.4 0.0
22/10:00am 27.8 25.7 13.7 42 8.4 SE 17 28 9 15 1011.5 1011.2 0.0
22/09:30am 26.8 23.5 12.8 42 8.2 SE 22 28 12 15 1011.4 1011.1 0.0
22/09:00am 26.7 23.9 13.1 43 8.0 SE 20 28 11 15 1011.4 1011.1 0.0
22/08:30am 25.2 23.1 13.7 49 6.8 SE 17 20 9 11 1011.3 1011.0 0.0
22/08:00am 23.5 22.2 13.7 54 5.7 SSE 13 19 7 10 1011.2 1010.9 0.0
22/07:30am 22.8 21.3 13.0 54 5.6 SE 13 17 7 9 1011.0 1010.7 0.0
22/07:00am 22.6 21.1 13.1 55 5.5 SE 13 17 7 9 1011.1 1010.8 0.0
22/06:30am 22.7 21.0 12.6 53 5.8 SE 13 19 7 10 1011.0 1010.7 0.0
22/06:00am 22.9 20.8 12.5 52 5.9 SE 15 19 8 10 1010.7 1010.4 0.0
22/05:30am 23.1 21.0 12.4 51 6.1 SE 15 20 8 11 1010.7 1010.4 0.0
22/05:00am 23.4 21.4 12.7 51 6.1 SE 15 20 8 11 1010.7 1010.4 0.0
22/04:30am 23.6 22.0 12.9 51 6.2 SSE 13 19 7 10 1010.6 1010.3 0.0
22/04:00am 23.8 21.7 12.4 48 6.5 SSE 15 22 8 12 1010.8 1010.5 0.0
22/03:30am 24.0 21.5 12.3 48 6.7 SE 17 24 9 13 1011.1 1010.8 0.0
22/03:00am 23.7 21.3 12.7 50 6.3 SE 17 22 9 12 1011.1 1010.8 0.0
22/02:30am 24.1 21.1 12.7 49 6.6 SE 20 30 11 16 1011.0 1010.7 0.0
22/02:00am 24.1 21.7 12.7 49 6.6 SE 17 26 9 14 1011.2 1010.9 0.0
22/01:30am 24.5 21.9 13.1 49 6.6 SE 19 24 10 13 1011.3 1011.0 0.0
22/01:00am 24.8 22.3 13.4 49 6.7 SE 19 26 10 14 1011.6 1011.3 0.0
22/12:30am 25.3 22.7 13.2 47 7.1 SSE 19 26 10 14 1011.6 1011.3 0.0
22/12:00am 25.7 23.6 13.5 46 7.2 SSE 17 22 9 12 1011.7 1011.4 0.0
 
Date/Time
CST
Temp
°C
App
Temp
°C
Dew
Point
°C
Rel
Hum
%
Delta-T
°C
Wind Press
QNH
hPa
Press
MSL
hPa
Rain since
9am
mm
Dir  Spd
km/h
Gust
km/h
Spd
kts
Gust
kts
21/11:30pm 26.6 23.6 13.7 45 7.6 SSE 22 35 12 19 1011.8 1011.5 0.0
21/11:00pm 27.1 25.7 14.5 46 7.6 S 15 22 8 12 1012.0 1011.7 0.0
21/10:30pm 27.8 26.4 14.4 43 8.1 S 15 20 8 11 1012.0 1011.7 0.0
21/10:00pm 28.5 27.2 14.7 43 8.4 SSE 15 24 8 13 1012.0 1011.7 0.0
21/09:30pm 28.9 28.0 15.8 45 8.1 S 15 24 8 13 1012.0 1011.7 0.0
21/09:00pm 29.1 29.1 17.3 49 7.5 S 13 19 7 10 1011.8 1011.5 0.0
21/08:30pm 29.4 30.5 17.2 47 7.7 SSE 7 9 4 5 1011.5 1011.2 0.0
21/08:00pm 29.6 30.0 16.4 45 8.2 SSE 9 13 5 7 1011.2 1010.9 0.0
21/07:30pm 29.8 30.1 15.9 43 8.6 SE 9 11 5 6 1011.0 1010.7 0.0
21/07:00pm 30.0 29.9 16.1 43 8.7 SSE 11 13 6 7 1010.6 1010.3 0.0
21/06:30pm 30.3 29.8 16.0 42 8.9 SSE 13 20 7 11 1010.0 1009.8 0.0
21/06:00pm 30.7 31.0 15.9 40 9.2 SSE 9 15 5 8 1009.7 1009.5 0.0
21/05:30pm 31.0 30.8 16.6 42 9.1 ESE 13 17 7 9 1009.4 1009.2 0.0
21/05:00pm 31.5 30.8 16.3 40 9.5 SSE 15 20 8 11 1009.0 1008.8 0.0
21/04:30pm 31.7 32.6 17.6 43 9.0 SSE 9 17 5 9 1008.7 1008.5 0.0
21/04:00pm 31.3 31.4 16.5 41 9.3 SE 11 17 6 9 1008.5 1008.3 0.0
21/03:30pm 31.2 31.0 16.8 42 9.1 ESE 13 19 7 10 1008.6 1008.4 0.0
21/03:00pm 31.2 30.7 16.0 40 9.5 E 13 20 7 11 1008.7 1008.5 0.0
21/02:30pm 31.6 31.5 16.0 39 9.8 SE 11 22 6 12 1008.9 1008.7 0.0
21/02:00pm 31.5 30.8 16.3 40 9.5 ESE 15 24 8 13 1009.1 1008.9 0.0
21/01:30pm 31.0 28.9 14.6 37 10.0 ESE 19 33 10 18 1009.6 1009.4 0.0
21/01:00pm 31.1 28.1 14.7 37 10.0 ESE 24 32 13 17 1010.0 1009.8 0.0
21/12:30pm 30.7 27.9 14.3 36 10.0 ESE 22 32 12 17 1010.5 1010.2 0.0
21/12:00pm 30.4 27.5 14.1 37 9.9 E 22 35 12 19 1011.0 1010.7 0.0
21/11:30am 29.4 25.4 11.9 34 10.2 ESE 24 35 13 19 1011.5 1011.2 0.0
21/11:00am 29.5 24.3 11.5 32 10.4 ESE 30 46 16 25 1011.7 1011.4 0.0
21/10:57am 29.2 24.2 10.8 32 10.5 ESE 28 46 15 25 1011.7 1011.4 0.0
21/10:30am 28.7 24.0 10.8 33 10.2 ESE 26 35 14 19 1011.8 1011.5 0.0
21/10:00am 27.6 23.6 10.3 34 9.7 SE 22 32 12 17 1011.8 1011.5 0.0
21/09:30am 26.4 22.1 10.9 38 8.8 SE 24 32 13 17 1011.7 1011.4 0.0
21/09:00am 25.4 21.2 11.2 41 8.0 SE 24 30 13 16 1011.6 1011.3 0.0
21/08:30am 24.6 21.4 11.9 45 7.2 SE 20 28 11 15 1011.6 1011.3 0.0
21/08:00am 23.4 20.8 12.1 49 6.4 SE 17 24 9 13 1011.3 1011.0 0.0
21/07:30am 22.9 19.4 12.2 51 6.1 SE 22 32 12 17 1011.0 1010.7 0.0
21/07:00am 22.8 19.6 11.8 50 6.2 SE 20 30 11 16 1010.7 1010.4 0.0
21/06:30am 23.0 20.0 12.0 50 6.2 SE 19 28 10 15 1010.5 1010.2 0.0
21/06:00am 23.4 20.4 12.4 50 6.3 SSE 20 28 11 15 1010.4 1010.1 0.0
21/05:30am 23.6 20.8 12.6 50 6.3 SSE 19 28 10 15 1010.3 1010.0 0.0
21/05:00am 23.5 20.9 13.7 54 5.7 SSE 20 28 11 15 1010.2 1009.9 0.0
21/04:30am 23.6 21.4 14.3 56 5.5 SE 19 24 10 13 1009.8 1009.6 0.0
21/04:00am 23.9 22.2 14.6 56 5.5 SE 17 24 9 13 1009.9 1009.7 0.0
21/03:30am 23.9 22.4 15.4 59 5.1 SE 17 20 9 11 1010.0 1009.8 0.0
21/03:00am 24.2 23.2 15.7 59 5.2 SSE 15 22 8 12 1010.3 1010.0 0.0
21/02:30am 24.1 23.7 16.1 61 4.9 SE 13 19 7 10 1010.3 1010.0 0.0
21/02:00am 24.5 24.1 16.2 60 5.1 SE 13 20 7 11 1010.3 1010.0 0.0
21/01:30am 25.0 24.5 15.9 57 5.5 SE 13 19 7 10 1010.3 1010.0 0.0
21/01:00am 25.3 23.9 15.6 55 5.9 SE 17 22 9 12 1010.6 1010.3 0.0
21/12:30am 25.7 24.5 16.0 55 5.9 SE 17 22 9 12 1010.8 1010.5 0.0
21/12:00am 26.2 24.9 15.9 53 6.3 SE 17 22 9 12 1011.1 1010.8 0.0
 
Date/Time
CST
Temp
°C
App
Temp
°C
Dew
Point
°C
Rel
Hum
%
Delta-T
°C
Wind Press
QNH
hPa
Press
MSL
hPa
Rain since
9am
mm
Dir  Spd
km/h
Gust
km/h
Spd
kts
Gust
kts
20/11:30pm 26.5 25.3 16.1 52 6.4 SE 17 20 9 11 1011.1 1010.8 0.0
20/11:00pm 27.0 26.5 16.0 51 6.8 SE 13 17 7 9 1011.4 1011.1 0.0
20/10:30pm 27.5 27.1 16.1 49 7.0 SE 13 17 7 9 1011.3 1011.0 0.0
20/10:00pm 27.7 27.0 16.3 49 7.1 SE 15 19 8 10 1011.5 1011.2 0.0
20/09:30pm 28.1 27.6 17.0 51 7.0 SE 15 19 8 10 1011.6 1011.3 0.0
20/09:00pm 28.3 28.3 17.2 51 7.0 SE 13 19 7 10 1011.3 1011.0 0.0
20/08:30pm 28.6 29.1 17.5 51 7.0 SE 11 13 6 7 1011.0 1010.7 0.0
20/08:00pm 28.7 29.8 17.9 52 6.9 SE 9 11 5 6 1010.6 1010.3 0.0
20/07:30pm 29.4 30.3 17.6 49 7.5 SE 9 13 5 7 1010.3 1010.0 0.0
20/07:00pm 30.1 31.0 17.5 46 8.0 SE 9 13 5 7 1009.8 1009.6 0.0
20/06:30pm 31.1 31.0 17.0 42 8.9 SE 13 19 7 10 1009.5 1009.3 0.0
20/06:00pm 32.0 31.6 17.1 41 9.5 SSE 15 22 8 12 1009.2 1009.0 0.0
20/05:30pm 32.4 31.4 16.7 39 10.0 SE 17 24 9 13 1008.7 1008.5 0.0
20/05:00pm 32.5 30.8 16.3 37 10.2 SE 20 28 11 15 1008.4 1008.2 0.0
20/04:30pm 33.2 32.0 17.0 38 10.3 SE 19 24 10 13 1008.0 1007.8 0.0
20/04:00pm 32.9 31.0 16.7 38 10.3 ESE 22 33 12 18 1007.9 1007.7 0.0
20/03:30pm 32.8 30.7 16.2 37 10.5 ESE 22 30 12 16 1007.7 1007.5 0.0
20/03:00pm 33.2 31.4 17.0 38 10.3 SE 22 33 12 18 1008.0 1007.8 0.0
20/02:30pm 33.1 31.1 17.3 39 10.1 ESE 24 35 13 19 1008.3 1008.1 0.0
20/02:00pm 32.6 30.4 16.8 38 10.0 ESE 24 32 13 17 1008.8 1008.6 0.0
20/01:30pm 32.9 31.9 17.5 39 9.9 SE 19 26 10 14 1009.4 1009.2 0.0
20/01:00pm 32.2 29.8 16.5 39 9.9 SE 24 32 13 17 1009.8 1009.6 0.0
20/12:30pm 31.8 30.8 16.5 39 9.6 ESE 17 28 9 15 1010.4 1010.1 0.0
20/12:00pm 31.6 30.3 16.7 40 9.4 SE 19 24 10 13 1010.7 1010.4 0.0

Latest Capital City Observations: Canberra | Sydney | Melbourne | Brisbane | Adelaide | Perth | Hobart | Darwin

Other formats

Comma delimited format used in spreadsheet applications
http://www.bom.gov.au/fwo/IDD60901/IDD60901.94120.axf

JavaScript Object Notation format (JSON) in row-major order
http://www.bom.gov.au/fwo/IDD60901/IDD60901.94120.json

Data quality

Most of these data are generated automatically and are frequently updated. Quality checks on data are not normally performed. It is possible for incorrect values to appear. Refer to information at About Latest Weather Observations and please check the disclaimer before using these data.